Time;durP1;ratioP1;P1;durP2;ratioP2;P2;SDS_P1;SDS_P2;PMS_P1;PMS_P2;Temp;Humidity;BMP_temperature;BMP_pressure;BME280_temperature;BME280_humidity;BME280_pressure;Samples;Min_cycle;Max_cycle;Signal;HPM_P1;HPM_P2
2021/08/20 03:30:50;;;;;;;4.50;3.57;;;;;;;22.14;59.20;98755.69;8588408;22;20204;-81
2021/08/20 03:34:12;;;;;;;3.37;3.07;;;;;;;21.83;61.01;98759.63;8580728;23;20167;-82
2021/08/20 03:37:34;;;;;;;3.30;3.00;;;;;;;22.22;59.73;98755.13;8579204;23;20193;-81
2021/08/20 03:40:55;;;;;;;4.23;2.70;;;;;;;22.34;58.72;98749.28;8577776;23;20218;-82
2021/08/20 03:44:17;;;;;;;4.40;2.93;;;;;;;22.29;59.17;98763.03;8579372;23;20182;-82
2021/08/20 03:47:40;;;;;;;4.77;3.00;;;;;;;22.17;58.99;98755.13;8579389;22;20218;-78
2021/08/20 03:51:01;;;;;;;4.30;3.20;;;;;;;22.20;59.00;98767.47;8593508;23;20174;-78
2021/08/20 03:54:23;;;;;;;3.17;2.73;;;;;;;21.90;59.68;98710.72;8580351;23;20183;-77
2021/08/20 03:57:49;;;;;;;4.10;3.13;;;;;;;22.35;58.93;98773.72;8593183;23;20202;-78
2021/08/20 04:01:10;;;;;;;4.87;3.80;;;;;;;22.38;59.23;98775.94;8579108;23;20171;-79
2021/08/20 04:04:34;;;;;;;3.47;3.17;;;;;;;22.40;58.65;98750.91;8578089;23;20633;-78
2021/08/20 04:07:55;;;;;;;2.90;2.70;;;;;;;22.46;58.21;98769.88;8580152;23;20205;-79
2021/08/20 04:11:17;;;;;;;5.60;2.70;;;;;;;22.46;58.54;98763.53;8580301;23;20248;-79
2021/08/20 04:14:38;;;;;;;5.90;3.20;;;;;;;22.23;58.76;98766.91;8595058;23;20183;-78
2021/08/20 04:18:00;;;;;;;5.93;3.30;;;;;;;22.23;59.89;98772.41;8581165;23;20203;-79
2021/08/20 04:21:23;;;;;;;4.67;3.10;;;;;;;22.20;59.49;98762.78;8581561;23;20190;-78
2021/08/20 04:24:45;;;;;;;3.40;2.87;;;;;;;22.02;60.16;98762.59;8582299;23;20183;-78
2021/08/20 04:28:06;;;;;;;4.37;3.30;;;;;;;21.90;61.00;98764.84;8595306;23;20198;-79
2021/08/20 04:31:28;;;;;;;3.53;3.10;;;;;;;21.93;60.81;98762.34;8581768;23;20244;-78
2021/08/20 04:34:49;;;;;;;3.03;2.83;;;;;;;21.91;61.03;98772.81;8580582;23;20186;-78
2021/08/20 04:38:12;;;;;;;3.67;3.10;;;;;;;22.17;60.49;98768.88;8580361;23;20206;-78
2021/08/20 04:41:34;;;;;;;4.20;3.00;;;;;;;22.49;59.00;98752.81;8594386;23;20226;-79
2021/08/20 04:44:56;;;;;;;6.53;3.27;;;;;;;22.46;59.22;98785.53;8581425;23;20185;-78
2021/08/20 04:48:17;;;;;;;3.63;3.10;;;;;;;22.17;59.30;98763.38;8619053;23;20214;-79
2021/08/20 04:51:39;;;;;;;5.23;2.80;;;;;;;22.17;60.02;98785.34;8636139;23;20179;-79
2021/08/20 04:55:02;;;;;;;3.60;3.03;;;;;;;22.35;59.34;98781.13;8623108;23;20239;-78
2021/08/20 04:58:24;;;;;;;3.30;3.00;;;;;;;22.39;59.52;98791.31;8622212;22;20209;-78
2021/08/20 05:01:45;;;;;;;3.27;2.97;;;;;;;22.48;59.36;98792.38;8622835;23;20183;-79
2021/08/20 05:05:08;;;;;;;3.57;3.00;;;;;;;22.62;58.05;98790.69;8622774;22;20632;-78
2021/08/20 05:08:30;;;;;;;3.40;3.00;;;;;;;22.55;58.15;98794.84;8622652;23;20233;-78
2021/08/20 05:11:53;;;;;;;3.53;2.90;;;;;;;22.66;58.53;98807.44;8622897;23;20511;-78
2021/08/20 05:15:15;;;;;;;4.20;3.30;;;;;;;22.34;58.98;98801.47;8622805;22;20174;-78
2021/08/20 05:18:37;;;;;;;5.50;3.30;;;;;;;22.39;59.46;98810.53;8621967;23;20235;-79
2021/08/20 05:21:59;;;;;;;4.33;2.97;;;;;;;22.30;59.58;98811.41;8621873;23;20323;-78
2021/08/20 05:25:21;;;;;;;3.27;3.00;;;;;;;22.52;58.99;98812.72;8622402;22;20181;-80
2021/08/20 05:28:44;;;;;;;4.47;3.20;;;;;;;22.48;58.81;98814.38;8621989;23;20178;-79
2021/08/20 05:32:06;;;;;;;3.20;2.90;;;;;;;22.41;59.17;98813.81;8622174;23;20181;-79
2021/08/20 05:35:28;;;;;;;4.17;3.17;;;;;;;22.37;59.17;98796.25;8635719;22;20194;-79
2021/08/20 05:38:49;;;;;;;3.10;2.80;;;;;;;22.20;59.70;98817.72;8621340;23;20361;-79
2021/08/20 05:42:11;;;;;;;4.17;3.00;;;;;;;22.46;59.56;98808.34;8635736;23;20639;-79
2021/08/20 05:45:36;;;;;;;3.63;3.33;;;;;;;22.27;59.75;98815.53;8621866;22;20206;-79
2021/08/20 05:48:58;;;;;;;5.50;2.70;;;;;;;22.75;58.53;98827.72;8621559;23;20598;-79
2021/08/20 05:52:19;;;;;;;2.90;2.70;;;;;;;22.92;58.09;98830.91;8622262;23;20698;-78
2021/08/20 05:55:41;;;;;;;3.57;3.27;;;;;;;22.99;58.17;98840.50;8621458;22;20207;-78
2021/08/20 05:59:03;;;;;;;3.47;3.10;;;;;;;22.72;58.96;98839.28;8621261;23;20207;-79
2021/08/20 06:02:26;;;;;;;3.90;3.30;;;;;;;22.96;57.89;98841.06;8621340;23;20185;-78
2021/08/20 06:05:47;;;;;;;3.83;3.20;;;;;;;23.07;57.85;98848.16;8622060;22;20210;-79
2021/08/20 06:09:09;;;;;;;4.40;3.17;;;;;;;23.20;57.63;98847.53;8621411;23;20691;-80
2021/08/20 06:12:31;;;;;;;3.77;2.90;;;;;;;23.16;58.05;98845.63;8621634;23;20182;-78
2021/08/20 06:15:52;;;;;;;3.40;3.10;;;;;;;23.23;58.06;98844.22;8635046;22;20196;-79
2021/08/20 06:19:15;;;;;;;5.90;3.37;;;;;;;23.48;56.87;98849.53;8621574;23;20678;-79
2021/08/20 06:22:37;;;;;;;4.47;3.50;;;;;;;23.45;56.30;98838.28;8621399;23;20184;-79
2021/08/20 06:25:58;;;;;;;3.53;2.87;;;;;;;23.71;56.57;98854.31;8635411;22;20199;-78
2021/08/20 06:29:20;;;;;;;3.40;3.10;;;;;;;23.54;56.78;98851.16;8621074;23;20181;-78
2021/08/20 06:32:42;;;;;;;3.77;3.37;;;;;;;23.68;57.09;98859.56;8621028;23;20187;-79
2021/08/20 06:36:05;;;;;;;3.37;3.07;;;;;;;23.83;56.77;98854.75;8635324;22;20194;-78
2021/08/20 06:39:27;;;;;;;4.90;3.37;;;;;;;23.83;56.80;98864.97;8620781;23;20197;-79
2021/08/20 06:42:49;;;;;;;4.53;3.40;;;;;;;24.04;56.27;98864.50;8621241;23;20187;-78
2021/08/20 06:46:10;;;;;;;6.60;3.40;;;;;;;23.67;56.66;98857.94;8621264;22;20226;-80
2021/08/20 06:49:32;;;;;;;3.97;3.47;;;;;;;23.84;57.09;98859.16;8621091;23;20649;-78
2021/08/20 06:52:55;;;;;;;3.67;3.30;;;;;;;24.12;56.25;98863.88;8620920;23;20193;-78
2021/08/20 06:56:16;;;;;;;4.80;3.30;;;;;;;24.36;54.45;98823.38;8621039;22;20206;-78
2021/08/20 06:59:38;;;;;;;5.37;3.10;;;;;;;24.61;54.25;98855.38;8620232;23;20198;-78
2021/08/20 07:03:00;;;;;;;4.57;3.83;;;;;;;24.62;55.25;98860.59;8633309;23;20176;-78
2021/08/20 07:06:22;;;;;;;6.50;3.40;;;;;;;24.71;53.80;98850.53;8634160;22;20682;-79
2021/08/20 07:09:45;;;;;;;3.67;3.10;;;;;;;24.60;54.23;98856.50;8620121;23;20516;-78
2021/08/20 07:13:07;;;;;;;4.80;3.33;;;;;;;24.36;54.69;98861.16;8619664;23;20188;-78
2021/08/20 07:16:29;;;;;;;4.30;3.33;;;;;;;24.88;52.07;98856.41;8620207;22;20200;-78
2021/08/20 07:19:51;;;;;;;3.27;2.97;;;;;;;25.80;49.43;98857.50;8620061;23;20200;-79
2021/08/20 07:23:15;;;;;;;4.00;3.60;;;;;;;25.38;50.35;98847.44;8635022;23;20181;-79
2021/08/20 07:26:38;;;;;;;3.73;3.30;;;;;;;25.44;50.14;98818.63;8622174;22;20210;-80
2021/08/20 07:30:01;;;;;;;4.37;3.70;;;;;;;26.13;47.68;98837.06;8636090;23;20177;-80
2021/08/20 07:33:25;;;;;;;3.87;3.13;;;;;;;26.99;46.41;98856.34;8623193;23;20187;-80
2021/08/20 07:36:50;;;;;;;9.20;4.00;;;;;;;26.50;46.93;98850.72;8622517;22;20210;-80
2021/08/20 07:40:12;;;;;;;5.10;4.10;;;;;;;26.90;46.27;98860.97;8635952;23;20212;-80
2021/08/20 07:43:35;;;;;;;4.23;3.70;;;;;;;26.98;46.45;98852.78;8621624;23;20579;-80
2021/08/20 07:46:57;;;;;;;5.20;4.50;;;;;;;27.79;44.74;98848.97;8623873;22;20211;-80
2021/08/20 07:50:19;;;;;;;4.67;4.13;;;;;;;27.36;44.06;98829.22;8637160;23;20187;-80
2021/08/20 07:53:40;;;;;;;6.17;4.57;;;;;;;27.15;44.92;98849.34;8625697;23;20182;-80
2021/08/20 07:57:02;;;;;;;5.47;4.47;;;;;;;26.04;47.89;98866.50;8636988;22;20201;-80
2021/08/20 08:00:27;;;;;;;5.83;4.60;;;;;;;26.23;46.79;98815.56;8622712;23;20278;-79
2021/08/20 08:03:49;;;;;;;8.00;4.63;;;;;;;26.46;46.56;98827.56;8623999;23;20188;-80
2021/08/20 08:07:10;;;;;;;6.40;4.90;;;;;;;27.57;44.65;98847.00;8623202;22;20206;-79
2021/08/20 08:10:32;;;;;;;5.30;4.80;;;;;;;27.38;43.41;98809.50;8622222;23;20178;-80
2021/08/20 08:13:54;;;;;;;4.60;4.10;;;;;;;28.02;43.41;98864.44;8637304;23;20233;-80
2021/08/20 08:17:17;;;;;;;6.00;4.53;;;;;;;27.86;43.74;98855.72;8637375;22;20205;-79
2021/08/20 08:20:38;;;;;;;5.97;4.40;;;;;;;27.76;43.55;98867.00;8622715;23;20204;-80
2021/08/20 08:24:00;;;;;;;6.43;4.40;;;;;;;27.75;43.50;98870.09;8636688;22;20435;-80
2021/08/20 08:27:22;;;;;;;5.40;4.90;;;;;;;27.85;43.81;98806.94;8623177;22;20695;-80
2021/08/20 08:30:44;;;;;;;6.00;5.40;;;;;;;27.90;42.41;98792.94;8622301;23;20185;-79
2021/08/20 08:34:08;;;;;;;8.43;5.37;;;;;;;28.93;41.62;98864.41;8637083;23;20182;-80
2021/08/20 08:37:30;;;;;;;6.83;4.43;;;;;;;28.24;42.20;98862.47;8636357;22;20202;-79
2021/08/20 08:40:51;;;;;;;6.70;5.70;;;;;;;28.28;42.45;98865.41;8622509;23;20526;-80
2021/08/20 08:44:13;;;;;;;6.30;4.87;;;;;;;28.67;42.23;98880.13;8623350;23;20183;-80
2021/08/20 08:47:36;;;;;;;5.63;5.13;;;;;;;27.96;43.34;98872.06;8635999;22;20236;-81
2021/08/20 08:51:00;;;;;;;7.93;5.50;;;;;;;27.86;42.23;98864.03;8622507;23;20180;-79
2021/08/20 08:54:22;;;;;;;7.37;6.23;;;;;;;28.19;41.19;98854.25;8622825;23;20555;-79
2021/08/20 08:57:44;;;;;;;5.43;4.87;;;;;;;29.00;40.74;98872.28;8621919;22;20203;-80
2021/08/20 09:01:27;;;;;;;7.20;4.73;;;;;;;28.97;41.53;98864.59;8622477;23;20224;-80
2021/08/20 09:04:56;;;;;;;5.17;4.70;;;;;;;29.05;40.28;98861.03;8622715;23;20223;-80
2021/08/20 09:08:21;;;;;;;11.33;5.57;;;;;;;28.12;41.77;98864.16;8636234;22;20224;-80
2021/08/20 09:11:44;;;;;;;6.80;5.20;;;;;;;27.24;42.11;98861.38;8636803;23;20178;-80
2021/08/20 09:15:07;;;;;;;5.40;4.53;;;;;;;28.10;41.78;98866.44;8623327;23;20516;-81
2021/08/20 09:18:29;;;;;;;7.47;4.77;;;;;;;28.25;42.40;98869.63;8622356;23;20190;-79
2021/08/20 09:21:53;;;;;;;6.47;4.43;;;;;;;28.27;40.58;98856.28;8622963;23;20212;-79
2021/08/20 09:25:37;;;;;;;4.90;4.40;;;;;;;29.11;40.55;98868.88;8636558;22;20255;-79
2021/08/20 09:29:11;;;;;;;5.17;4.63;;;;;;;28.30;40.78;98804.91;8622479;23;20175;-80
2021/08/20 09:32:33;;;;;;;5.37;4.10;;;;;;;28.75;39.97;98865.50;8622134;23;20623;-80
2021/08/20 09:35:59;;;;;;;7.03;4.80;;;;;;;29.01;39.06;98819.19;8621703;22;20205;-79
2021/08/20 09:39:26;;;;;;;5.93;4.50;;;;;;;27.76;40.65;98811.59;8621675;23;20678;-81
2021/08/20 09:42:49;;;;;;;4.60;4.20;;;;;;;27.82;41.29;98868.56;8622378;23;20306;-80
2021/08/20 09:46:13;;;;;;;4.80;3.93;;;;;;;28.52;40.83;98880.59;8634940;22;20201;-82
2021/08/20 09:49:55;;;;;;;5.67;4.60;;;;;;;28.22;41.27;98867.50;8648868;23;20187;-82
2021/08/20 09:53:16;;;;;;;4.90;4.40;;;;;;;27.55;41.65;98862.28;8636765;23;20174;-82
2021/08/20 09:56:38;;;;;;;5.83;5.07;;;;;;;27.49;43.14;98869.88;8649140;23;20198;-82
2021/08/20 10:00:01;;;;;;;8.33;5.60;;;;;;;27.72;43.26;98856.88;8635469;23;20204;-82
2021/08/20 10:03:24;;;;;;;5.30;4.80;;;;;;;28.23;42.39;98871.09;8640026;23;20178;-81
2021/08/20 10:06:46;;;;;;;5.83;5.07;;;;;;;28.19;41.41;98865.34;8621590;23;20209;-81
2021/08/20 10:10:10;;;;;;;5.73;5.23;;;;;;;28.08;40.81;98875.06;8634637;23;20180;-81
2021/08/20 10:13:32;;;;;;;5.30;4.80;;;;;;;26.76;43.75;98874.81;8634966;23;20540;-81
2021/08/20 10:16:55;;;;;;;4.90;4.47;;;;;;;27.63;43.05;98865.13;8621118;23;20201;-81
2021/08/20 10:20:16;;;;;;;6.10;5.50;;;;;;;27.67;41.64;98873.63;8620974;23;20530;-81
2021/08/20 10:23:38;;;;;;;5.57;5.03;;;;;;;27.98;41.29;98861.50;8620553;23;20182;-80
2021/08/20 10:27:05;;;;;;;5.00;4.60;;;;;;;29.09;39.32;98864.78;8621972;23;20688;-81
2021/08/20 10:30:27;;;;;;;5.57;4.80;;;;;;;29.06;38.54;98874.59;8635289;23;20192;-81
2021/08/20 10:33:50;;;;;;;4.77;4.07;;;;;;;29.91;37.93;98855.19;8636504;23;20227;-81
2021/08/20 10:37:13;;;;;;;5.40;4.90;;;;;;;30.07;36.36;98852.72;8623765;23;20195;-81
2021/08/20 10:40:35;;;;;;;3.80;3.50;;;;;;;30.40;36.30;98862.13;8625786;23;20213;-81
2021/08/20 10:44:01;;;;;;;5.03;4.53;;;;;;;29.09;36.09;98846.19;8625853;23;20189;-81
2021/08/20 10:47:24;;;;;;;3.40;3.10;;;;;;;29.81;34.52;98832.47;8626127;23;20214;-81
2021/08/20 10:50:47;;;;;;;3.77;3.37;;;;;;;30.47;33.96;98838.22;8625038;23;20200;-81
2021/08/20 10:54:09;;;;;;;3.20;2.90;;;;;;;30.70;32.25;98847.16;8626009;23;20183;-81
2021/08/20 10:57:55;;;;;;;3.60;3.20;;;;;;;31.64;31.70;98834.25;8625890;23;20212;-80
2021/08/20 11:01:20;;;;;;;3.50;3.10;;;;;;;30.15;32.58;98840.78;8631580;23;20190;-80
2021/08/20 11:04:57;;;;;;;4.37;3.63;;;;;;;31.00;32.98;98823.72;8646181;23;20185;-80
2021/08/20 11:08:45;;;;;;;3.60;3.30;;;;;;;31.99;32.16;98830.00;8630593;23;20200;-80
2021/08/20 11:12:07;;;;;;;3.80;3.27;;;;;;;31.34;32.16;98827.13;8645402;23;20170;-80
2021/08/20 11:15:45;;;;;;;5.97;4.10;;;;;;;30.94;33.96;98837.03;8629817;23;20546;-80
2021/08/20 11:19:06;;;;;;;4.00;3.70;;;;;;;31.82;32.60;98832.97;8641963;23;20188;-80
2021/08/20 11:22:30;;;;;;;4.60;3.93;;;;;;;30.79;34.20;98823.69;8640677;23;20201;-80
2021/08/20 11:25:56;;;;;;;6.23;3.60;;;;;;;29.76;35.76;98827.09;8658114;23;20197;-80
2021/08/20 11:29:18;;;;;;;4.23;3.80;;;;;;;28.60;36.57;98846.50;8656195;23;20200;-81
2021/08/20 11:32:39;;;;;;;3.87;3.23;;;;;;;29.59;34.20;98824.31;8632248;23;20179;-80
2021/08/20 11:36:02;;;;;;;4.13;3.73;;;;;;;29.87;34.06;98837.56;8632533;23;20199;-80
2021/08/20 11:39:24;;;;;;;6.50;3.50;;;;;;;30.90;32.64;98838.84;8632835;23;20190;-81
2021/08/20 11:43:10;;;;;;;5.47;3.43;;;;;;;29.27;35.40;98835.91;8633204;23;20189;-80
2021/08/20 11:46:36;;;;;;;3.63;3.33;;;;;;;30.80;33.76;98836.47;8632602;23;20218;-80
2021/08/20 11:50:07;;;;;;;4.77;3.60;;;;;;;29.69;34.87;98824.00;8631653;23;20217;-80
2021/08/20 11:53:29;;;;;;;5.03;3.20;;;;;;;30.40;34.65;98812.06;8646136;23;20179;-81
2021/08/20 11:56:52;;;;;;;6.33;3.60;;;;;;;31.19;32.70;98815.78;8644419;23;20193;-80
2021/08/20 12:00:16;;;;;;;4.03;2.90;;;;;;;30.77;33.43;98831.56;8630711;23;20209;-80
2021/08/20 12:03:44;;;;;;;3.50;3.20;;;;;;;29.93;33.70;98835.41;8630953;23;20185;-81
2021/08/20 12:07:06;;;;;;;3.60;3.30;;;;;;;30.24;32.67;98830.47;8630960;23;20209;-79
2021/08/20 12:10:27;;;;;;;3.90;3.10;;;;;;;29.96;32.71;98831.97;8629783;23;20183;-80
2021/08/20 12:13:50;;;;;;;3.40;2.93;;;;;;;30.27;32.63;98799.19;8630402;23;20185;-80
2021/08/20 12:17:23;;;;;;;3.60;3.30;;;;;;;30.17;32.58;98805.94;8645059;23;20192;-80
2021/08/20 12:20:44;;;;;;;3.67;3.33;;;;;;;29.75;32.84;98828.25;8629195;23;20189;-80
2021/08/20 12:24:06;;;;;;;3.90;3.03;;;;;;;30.65;32.35;98811.13;8630040;23;20188;-81
2021/08/20 12:27:40;;;;;;;3.30;3.00;;;;;;;30.46;31.02;98830.19;8644235;23;20521;-80
2021/08/20 12:31:06;;;;;;;3.37;2.97;;;;;;;31.27;30.21;98832.44;8642866;23;20164;-81
2021/08/20 12:34:32;;;;;;;3.53;3.20;;;;;;;32.23;29.00;98821.69;8631464;23;20241;-80
2021/08/20 12:38:06;;;;;;;4.57;2.87;;;;;;;31.91;29.74;98824.50;8645897;23;20536;-81
2021/08/20 12:41:28;;;;;;;4.87;3.37;;;;;;;31.18;31.37;98823.31;8631817;23;20188;-81
2021/08/20 12:45:12;;;;;;;3.03;2.70;;;;;;;31.28;30.72;98838.81;8646135;23;20210;-81
2021/08/20 12:48:33;;;;;;;3.27;2.97;;;;;;;30.65;31.39;98823.09;8631657;23;20208;-80
2021/08/20 12:51:56;;;;;;;3.30;3.00;;;;;;;31.32;30.41;98839.75;8645599;23;20179;-81
2021/08/20 12:55:29;;;;;;;3.20;2.90;;;;;;;31.38;30.36;98824.47;8633066;23;20192;-81
2021/08/20 12:58:59;;;;;;;3.57;3.27;;;;;;;31.09;30.05;98828.09;8632799;23;20195;-81
2021/08/20 13:02:21;;;;;;;3.60;2.90;;;;;;;31.72;30.36;98824.22;8631811;23;20186;-81
2021/08/20 13:06:00;;;;;;;4.10;3.23;;;;;;;30.51;30.59;98818.88;8633274;23;20187;-81
2021/08/20 13:09:23;;;;;;;3.50;3.20;;;;;;;32.35;27.68;98821.75;8631839;23;20169;-80
2021/08/20 13:12:45;;;;;;;3.37;2.93;;;;;;;32.43;28.21;98815.22;8645859;23;20186;-81
2021/08/20 13:16:07;;;;;;;3.27;2.80;;;;;;;31.01;30.15;98823.38;8630939;23;20684;-81
2021/08/20 13:19:28;;;;;;;3.57;3.10;;;;;;;31.75;29.83;98823.50;8630285;23;20193;-81
2021/08/20 13:22:50;;;;;;;3.20;2.90;;;;;;;31.72;29.71;98810.28;8628791;23;20202;-81
2021/08/20 13:26:13;;;;;;;4.20;3.30;;;;;;;30.96;29.67;98815.22;8637329;23;20201;-81
2021/08/20 13:29:35;;;;;;;3.77;3.10;;;;;;;30.66;29.47;98794.09;8620591;23;20180;-81
2021/08/20 13:32:57;;;;;;;5.33;3.13;;;;;;;31.50;28.90;98814.22;8621504;23;20188;-81
2021/08/20 13:36:19;;;;;;;3.13;2.83;;;;;;;31.27;29.81;98806.53;8620696;23;20220;-81
2021/08/20 13:39:41;;;;;;;3.03;2.83;;;;;;;30.86;30.08;98795.31;8620259;23;20189;-81
2021/08/20 13:43:09;;;;;;;4.27;3.20;;;;;;;30.83;31.11;98807.94;8620425;23;20208;-81
2021/08/20 13:46:30;;;;;;;4.83;3.20;;;;;;;31.04;30.15;98807.97;8620474;23;20209;-81
2021/08/20 13:49:52;;;;;;;3.20;2.90;;;;;;;31.01;29.72;98800.31;8619498;23;20183;-81
2021/08/20 13:53:14;;;;;;;4.97;2.70;;;;;;;30.51;30.84;98810.53;8620694;23;20190;-81
2021/08/20 13:56:35;;;;;;;3.53;3.23;;;;;;;29.86;30.50;98804.50;8634579;23;20205;-81
2021/08/20 13:59:59;;;;;;;3.17;2.87;;;;;;;31.36;29.88;98804.50;8633575;23;20182;-81
2021/08/20 14:03:20;;;;;;;4.07;3.27;;;;;;;30.97;29.88;98790.97;8620374;23;20245;-81
2021/08/20 14:06:43;;;;;;;4.43;2.80;;;;;;;29.94;32.30;98801.72;8620920;23;20203;-81
2021/08/20 14:10:05;;;;;;;4.40;3.13;;;;;;;30.82;30.26;98806.31;8619507;23;20178;-81
2021/08/20 14:13:27;;;;;;;3.97;3.20;;;;;;;30.35;30.82;98809.44;8621076;23;20493;-81
2021/08/20 14:16:50;;;;;;;3.83;2.80;;;;;;;30.22;30.35;98816.06;8634424;23;20199;-81
2021/08/20 14:20:13;;;;;;;3.17;2.87;;;;;;;30.07;30.88;98805.44;8619897;23;20183;-81
2021/08/20 14:23:35;;;;;;;4.07;2.63;;;;;;;30.21;31.01;98797.72;8621883;23;20269;-81
2021/08/20 14:26:57;;;;;;;3.00;2.70;;;;;;;30.87;29.48;98796.94;8622434;23;20678;-81
2021/08/20 14:30:19;;;;;;;3.63;2.70;;;;;;;29.73;31.90;98806.31;8620617;23;20182;-81
2021/08/20 14:33:42;;;;;;;3.53;2.93;;;;;;;29.81;31.28;98810.25;8620129;23;20252;-81
2021/08/20 14:37:04;;;;;;;3.30;3.00;;;;;;;30.15;31.79;98802.69;8621372;23;20205;-81
2021/08/20 14:40:25;;;;;;;3.53;3.13;;;;;;;30.56;30.21;98802.00;8620200;23;20496;-81
2021/08/20 14:43:47;;;;;;;2.90;2.70;;;;;;;30.77;30.35;98803.72;8620070;23;20187;-82
2021/08/20 14:47:09;;;;;;;3.40;3.00;;;;;;;30.04;30.23;98809.72;8620491;23;20210;-81
2021/08/20 14:50:32;;;;;;;3.37;3.10;;;;;;;29.18;31.97;98812.88;8620306;23;20179;-81
2021/08/20 14:53:54;;;;;;;4.93;2.90;;;;;;;29.21;32.18;98817.75;8621343;23;20185;-81
2021/08/20 14:57:15;;;;;;;5.10;3.30;;;;;;;29.29;31.75;98808.59;8624284;23;20197;-81
2021/08/20 15:00:37;;;;;;;4.27;3.00;;;;;;;29.95;31.94;98802.53;8623411;23;20265;-81
2021/08/20 15:03:58;;;;;;;3.13;2.80;;;;;;;30.33;30.91;98803.41;8624676;23;20181;-81
2021/08/20 15:07:22;;;;;;;3.07;2.87;;;;;;;30.22;31.07;98807.72;8623810;23;20209;-81
2021/08/20 15:10:44;;;;;;;6.67;3.37;;;;;;;29.41;30.86;98820.72;8623160;23;20181;-81
2021/08/20 15:14:07;;;;;;;3.73;2.97;;;;;;;29.66;31.29;98816.31;8623735;23;20214;-81
2021/08/20 15:17:29;;;;;;;3.67;3.10;;;;;;;29.62;31.48;98816.16;8623844;23;20328;-81
2021/08/20 15:20:50;;;;;;;4.10;2.90;;;;;;;29.59;30.57;98779.84;8623175;23;20210;-81
2021/08/20 15:24:13;;;;;;;3.00;2.80;;;;;;;29.65;32.13;98809.09;8623908;23;20179;-81
2021/08/20 15:27:35;;;;;;;4.00;2.97;;;;;;;29.74;31.41;98796.84;8623267;23;20569;-81
2021/08/20 15:30:57;;;;;;;3.93;3.10;;;;;;;29.59;31.74;98804.88;8621256;23;20201;-81
2021/08/20 15:34:19;;;;;;;3.67;3.10;;;;;;;29.83;31.97;98821.88;8623710;23;20169;-81
2021/08/20 15:37:41;;;;;;;3.93;3.17;;;;;;;29.52;33.58;98815.63;8623480;23;20209;-81
2021/08/20 15:41:08;;;;;;;3.47;2.70;;;;;;;29.85;32.21;98816.78;8623408;23;20627;-81
2021/08/20 15:44:29;;;;;;;3.33;3.00;;;;;;;28.98;33.76;98822.66;8624722;23;20168;-81
2021/08/20 15:47:51;;;;;;;4.97;3.30;;;;;;;29.16;33.66;98818.75;8623725;23;20493;-81
2021/08/20 15:51:13;;;;;;;6.03;3.47;;;;;;;28.96;32.92;98815.78;8622982;23;20185;-81
2021/08/20 15:54:34;;;;;;;3.10;2.80;;;;;;;29.05;32.76;98809.09;8623823;23;20184;-80
2021/08/20 15:57:57;;;;;;;3.63;3.23;;;;;;;28.82;32.90;98817.81;8624220;23;20197;-80
2021/08/20 16:01:19;;;;;;;3.37;3.07;;;;;;;28.93;34.04;98819.97;8624366;23;20254;-81
2021/08/20 16:04:41;;;;;;;5.63;2.80;;;;;;;29.12;33.55;98819.69;8624079;23;20182;-81
2021/08/20 16:08:03;;;;;;;4.30;2.77;;;;;;;28.60;34.21;98818.75;8623633;23;20201;-79
2021/08/20 16:11:24;;;;;;;3.13;2.90;;;;;;;29.19;33.01;98818.09;8623401;23;20179;-81
2021/08/20 16:14:47;;;;;;;3.90;2.97;;;;;;;29.16;32.71;98802.09;8622171;23;20261;-81
2021/08/20 16:18:09;;;;;;;4.03;3.10;;;;;;;29.07;34.02;98817.91;8622123;23;20200;-81
2021/08/20 16:21:31;;;;;;;4.20;3.00;;;;;;;28.68;33.24;98817.97;8621942;23;20218;-81
2021/08/20 16:24:52;;;;;;;3.23;2.93;;;;;;;28.74;33.27;98800.03;8635970;23;20170;-81
2021/08/20 16:28:14;;;;;;;2.90;2.70;;;;;;;28.35;34.04;98813.91;8621444;23;20663;-81
2021/08/20 16:31:37;;;;;;;4.90;3.20;;;;;;;28.76;34.15;98811.63;8621778;23;20185;-81
2021/08/20 16:34:59;;;;;;;3.10;2.90;;;;;;;29.00;34.18;98813.97;8619549;23;20185;-81
2021/08/20 16:38:20;;;;;;;4.00;3.20;;;;;;;28.32;34.72;98802.63;8618824;23;20569;-81
2021/08/20 16:41:42;;;;;;;3.40;3.10;;;;;;;28.99;34.41;98820.66;8619570;23;20652;-81
2021/08/20 16:45:04;;;;;;;3.47;3.17;;;;;;;28.96;33.86;98824.09;8618324;23;20212;-81
2021/08/20 16:48:27;;;;;;;3.33;3.03;;;;;;;29.17;33.18;98823.16;8618198;23;20259;-81
2021/08/20 16:51:49;;;;;;;3.23;2.93;;;;;;;29.13;33.78;98821.34;8619377;23;20508;-80
2021/08/20 16:55:11;;;;;;;3.37;3.07;;;;;;;28.82;34.53;98815.03;8619782;23;20185;-81
2021/08/20 16:58:33;;;;;;;4.33;3.03;;;;;;;28.21;36.00;98840.09;8618101;23;20207;-81
2021/08/20 17:01:54;;;;;;;3.80;3.40;;;;;;;28.77;38.41;98831.88;8619982;23;20652;-80
2021/08/20 17:05:17;;;;;;;3.87;3.33;;;;;;;28.69;38.36;98827.09;8620579;23;20189;-81
2021/08/20 17:08:39;;;;;;;4.23;3.93;;;;;;;28.71;38.24;98831.19;8632049;23;20195;-81
2021/08/20 17:12:01;;;;;;;4.73;3.40;;;;;;;28.41;38.59;98829.28;8620845;23;20185;-81
2021/08/20 17:15:22;;;;;;;4.77;3.07;;;;;;;28.24;38.95;98809.75;8619348;23;20182;-81
2021/08/20 17:18:44;;;;;;;4.17;2.93;;;;;;;28.36;38.63;98832.16;8618427;23;20204;-81
2021/08/20 17:22:08;;;;;;;3.77;3.40;;;;;;;27.97;39.99;98839.63;8620116;23;20679;-81
2021/08/20 17:25:29;;;;;;;3.80;3.00;;;;;;;28.19;39.18;98834.06;8619299;23;20189;-81
2021/08/20 17:28:51;;;;;;;4.50;3.43;;;;;;;28.05;39.82;98841.63;8618797;23;20231;-81
2021/08/20 17:32:12;;;;;;;4.00;3.10;;;;;;;28.21;39.71;98829.00;8619763;23;20174;-81
2021/08/20 17:35:34;;;;;;;3.93;2.97;;;;;;;27.77;40.59;98838.19;8618870;23;20185;-81
2021/08/20 17:38:57;;;;;;;3.73;3.20;;;;;;;27.63;40.58;98817.19;8619120;23;20185;-81
2021/08/20 17:42:19;;;;;;;4.00;3.53;;;;;;;27.33;41.27;98823.47;8618750;23;20208;-81
2021/08/20 17:45:40;;;;;;;4.40;4.00;;;;;;;27.15;42.56;98838.28;8618969;23;20417;-81
2021/08/20 17:49:02;;;;;;;5.27;3.87;;;;;;;27.09;42.95;98845.88;8617876;23;20166;-81
2021/08/20 17:52:24;;;;;;;5.27;4.53;;;;;;;27.04;43.16;98843.22;8620413;23;20380;-81
2021/08/20 17:55:47;;;;;;;5.37;3.97;;;;;;;26.70;44.26;98848.38;8621009;23;20178;-81
2021/08/20 17:59:08;;;;;;;4.40;4.00;;;;;;;26.39;45.23;98827.97;8620183;23;20191;-81
2021/08/20 18:02:31;;;;;;;5.07;4.17;;;;;;;26.44;45.56;98846.41;8622114;23;20198;-81
2021/08/20 18:05:54;;;;;;;5.77;3.70;;;;;;;26.10;46.73;98854.25;8620865;23;20501;-81
2021/08/20 18:09:16;;;;;;;4.43;3.50;;;;;;;26.27;46.51;98843.41;8621013;23;20197;-81
2021/08/20 18:12:39;;;;;;;6.27;3.80;;;;;;;26.35;46.05;98854.59;8635095;23;20659;-81
2021/08/20 18:16:01;;;;;;;5.87;4.33;;;;;;;25.78;47.43;98855.03;8620934;23;20226;-81
2021/08/20 18:19:22;;;;;;;4.87;3.87;;;;;;;25.58;47.58;98843.50;8620340;23;20546;-80
2021/08/20 18:22:44;;;;;;;4.37;3.97;;;;;;;25.40;48.42;98866.44;8634700;23;20198;-81
2021/08/20 18:26:06;;;;;;;6.20;4.10;;;;;;;25.60;47.82;98858.66;8621073;23;20211;-80
2021/08/20 18:29:29;;;;;;;6.77;4.40;;;;;;;25.52;48.29;98869.56;8619986;23;20178;-81
2021/08/20 18:32:50;;;;;;;4.77;4.27;;;;;;;25.39;48.27;98871.16;8633967;23;20170;-81
2021/08/20 18:36:12;;;;;;;5.47;3.90;;;;;;;24.43;50.69;98872.66;8620537;23;20210;-82
2021/08/20 18:39:34;;;;;;;5.77;4.10;;;;;;;24.73;50.15;98851.06;8620314;23;20182;-81
2021/08/20 18:42:56;;;;;;;6.53;5.03;;;;;;;24.63;50.52;98869.69;8621609;23;20619;-81
2021/08/20 18:46:18;;;;;;;7.97;4.80;;;;;;;24.64;50.47;98883.19;8634612;23;20718;-81
2021/08/20 18:49:40;;;;;;;6.00;4.47;;;;;;;24.40;51.16;98871.28;8619908;23;20506;-81
2021/08/20 18:53:02;;;;;;;5.17;4.47;;;;;;;24.13;52.62;98890.31;8620133;23;20179;-80
2021/08/20 18:56:24;;;;;;;6.23;4.33;;;;;;;24.02;51.85;98891.50;8619484;23;20536;-81
2021/08/20 18:59:45;;;;;;;4.60;4.20;;;;;;;24.24;51.48;98904.84;8617860;23;20183;-81
2021/08/20 19:03:08;;;;;;;4.20;3.90;;;;;;;24.07;52.22;98909.94;8618570;23;20655;-81
2021/08/20 19:06:30;;;;;;;4.77;4.20;;;;;;;24.01;52.42;98911.91;8619196;23;20207;-80
2021/08/20 19:09:51;;;;;;;6.10;4.43;;;;;;;24.01;52.46;98922.13;8619146;23;20189;-81
2021/08/20 19:13:13;;;;;;;5.30;4.10;;;;;;;23.86;53.05;98925.81;8620650;23;20177;-81
2021/08/20 19:16:35;;;;;;;5.07;4.57;;;;;;;23.79;52.99;98935.50;8619576;23;20204;-81
2021/08/20 19:19:58;;;;;;;5.97;4.00;;;;;;;23.68;52.50;98937.50;8619112;23;20189;-81
2021/08/20 19:23:19;;;;;;;4.53;4.13;;;;;;;23.81;52.39;98934.09;8620384;23;20213;-81
2021/08/20 19:26:41;;;;;;;5.23;4.73;;;;;;;23.40;52.72;98918.97;8620160;23;20207;-81